sensor_id;sensor_type;location;lat;lon;timestamp;pressure;altitude;pressure_sealevel;temperature;humidity
65754;BME280;52488;47.502;18.940;2022-12-29T00:00:36;98654.66;;;1.62;81.22
65754;BME280;52488;47.502;18.940;2022-12-29T00:01:39;98648.03;;;1.57;81.47
65754;BME280;52488;47.502;18.940;2022-12-29T00:02:42;98651.69;;;1.60;81.48
65754;BME280;52488;47.502;18.940;2022-12-29T00:03:46;98655.91;;;1.55;81.58
65754;BME280;52488;47.502;18.940;2022-12-29T00:04:50;98659.13;;;1.54;81.66
65754;BME280;52488;47.502;18.940;2022-12-29T00:05:56;98659.81;;;1.60;81.48
65754;BME280;52488;47.502;18.940;2022-12-29T00:07:00;98662.78;;;1.62;81.31
65754;BME280;52488;47.502;18.940;2022-12-29T00:08:03;98661.06;;;1.59;81.42
65754;BME280;52488;47.502;18.940;2022-12-29T00:09:06;98656.94;;;1.52;81.60
65754;BME280;52488;47.502;18.940;2022-12-29T00:10:09;98662.63;;;1.49;81.76
65754;BME280;52488;47.502;18.940;2022-12-29T00:11:15;98656.72;;;1.50;81.80
65754;BME280;52488;47.502;18.940;2022-12-29T00:12:18;98659.72;;;1.47;81.87
65754;BME280;52488;47.502;18.940;2022-12-29T00:13:21;98653.81;;;1.43;82.06
65754;BME280;52488;47.502;18.940;2022-12-29T00:14:42;98654.84;;;1.40;82.20
65754;BME280;52488;47.502;18.940;2022-12-29T00:16:06;98646.72;;;1.40;82.36
65754;BME280;52488;47.502;18.940;2022-12-29T00:17:09;98644.25;;;1.42;82.19
65754;BME280;52488;47.502;18.940;2022-12-29T00:18:12;98647.94;;;1.39;82.23
65754;BME280;52488;47.502;18.940;2022-12-29T00:19:15;98645.94;;;1.45;81.98
65754;BME280;52488;47.502;18.940;2022-12-29T00:20:37;98636.37;;;1.38;82.18
65754;BME280;52488;47.502;18.940;2022-12-29T00:21:59;98641.38;;;1.34;82.31
65754;BME280;52488;47.502;18.940;2022-12-29T00:23:20;98630.53;;;1.34;82.41
65754;BME280;52488;47.502;18.940;2022-12-29T00:24:44;98640.19;;;1.29;82.58
65754;BME280;52488;47.502;18.940;2022-12-29T00:25:55;98641.69;;;1.25;82.80
65754;BME280;52488;47.502;18.940;2022-12-29T00:27:17;98641.53;;;1.42;82.56
65754;BME280;52488;47.502;18.940;2022-12-29T00:28:38;98647.22;;;1.38;82.64
65754;BME280;52488;47.502;18.940;2022-12-29T00:30:00;98645.75;;;1.37;82.68
65754;BME280;52488;47.502;18.940;2022-12-29T00:31:29;98651.47;;;1.34;82.65
65754;BME280;52488;47.502;18.940;2022-12-29T00:32:51;98646.78;;;1.34;82.76
65754;BME280;52488;47.502;18.940;2022-12-29T00:34:12;98644.06;;;1.34;82.69
65754;BME280;52488;47.502;18.940;2022-12-29T00:35:39;98647.84;;;1.25;83.08
65754;BME280;52488;47.502;18.940;2022-12-29T00:36:45;98640.50;;;1.20;83.20
65754;BME280;52488;47.502;18.940;2022-12-29T00:37:48;98642.00;;;1.16;83.48
65754;BME280;52488;47.502;18.940;2022-12-29T00:39:16;98642.00;;;1.16;83.53
65754;BME280;52488;47.502;18.940;2022-12-29T00:40:38;98639.81;;;1.14;83.32
65754;BME280;52488;47.502;18.940;2022-12-29T00:42:05;98641.09;;;1.08;83.36
65754;BME280;52488;47.502;18.940;2022-12-29T00:43:27;98631.28;;;1.04;83.55
65754;BME280;52488;47.502;18.940;2022-12-29T00:44:48;98638.66;;;1.04;83.72
65754;BME280;52488;47.502;18.940;2022-12-29T00:45:51;98635.78;;;0.96;83.80
65754;BME280;52488;47.502;18.940;2022-12-29T00:46:54;98640.94;;;0.94;83.82
65754;BME280;52488;47.502;18.940;2022-12-29T00:47:57;98642.47;;;0.90;83.92
65754;BME280;52488;47.502;18.940;2022-12-29T00:49:00;98645.91;;;0.90;83.98
65754;BME280;52488;47.502;18.940;2022-12-29T00:50:23;98637.31;;;0.86;83.85
65754;BME280;52488;47.502;18.940;2022-12-29T00:51:25;98643.25;;;0.85;83.80
65754;BME280;52488;47.502;18.940;2022-12-29T00:52:28;98630.69;;;0.82;83.89
65754;BME280;52488;47.502;18.940;2022-12-29T00:53:32;98630.19;;;0.83;83.87
65754;BME280;52488;47.502;18.940;2022-12-29T00:54:37;98643.00;;;0.83;84.00
65754;BME280;52488;47.502;18.940;2022-12-29T00:55:40;98642.53;;;0.78;84.24
65754;BME280;52488;47.502;18.940;2022-12-29T00:56:46;98642.06;;;0.74;84.33
65754;BME280;52488;47.502;18.940;2022-12-29T00:57:49;98644.31;;;0.70;84.33
65754;BME280;52488;47.502;18.940;2022-12-29T00:58:52;98642.84;;;0.69;84.29
65754;BME280;52488;47.502;18.940;2022-12-29T00:59:55;98643.09;;;0.66;84.25
65754;BME280;52488;47.502;18.940;2022-12-29T01:01:06;98639.22;;;0.61;84.21
65754;BME280;52488;47.502;18.940;2022-12-29T01:02:13;98638.19;;;0.64;84.39
65754;BME280;52488;47.502;18.940;2022-12-29T01:03:16;98633.06;;;0.61;84.73
65754;BME280;52488;47.502;18.940;2022-12-29T01:04:24;98632.59;;;0.57;84.91
65754;BME280;52488;47.502;18.940;2022-12-29T01:05:27;98628.63;;;0.63;84.95
65754;BME280;52488;47.502;18.940;2022-12-29T01:06:31;98633.81;;;0.61;85.01
65754;BME280;52488;47.502;18.940;2022-12-29T01:07:34;98627.94;;;0.57;85.15
65754;BME280;52488;47.502;18.940;2022-12-29T01:08:38;98626.69;;;0.58;85.18
65754;BME280;52488;47.502;18.940;2022-12-29T01:09:41;98626.47;;;0.56;85.30
65754;BME280;52488;47.502;18.940;2022-12-29T01:12:07;98629.94;;;0.51;85.43
65754;BME280;52488;47.502;18.940;2022-12-29T01:13:10;98629.22;;;0.45;85.29
65754;BME280;52488;47.502;18.940;2022-12-29T01:14:13;98626.06;;;0.41;85.43
65754;BME280;52488;47.502;18.940;2022-12-29T01:15:16;98624.09;;;0.41;85.43
65754;BME280;52488;47.502;18.940;2022-12-29T01:16:19;98633.16;;;0.44;85.50
65754;BME280;52488;47.502;18.940;2022-12-29T01:17:22;98636.84;;;0.46;85.58
65754;BME280;52488;47.502;18.940;2022-12-29T01:18:26;98634.13;;;0.46;85.56
65754;BME280;52488;47.502;18.940;2022-12-29T01:19:30;98637.34;;;0.45;85.71
65754;BME280;52488;47.502;18.940;2022-12-29T01:20:32;98638.53;;;0.49;85.81
65754;BME280;52488;47.502;18.940;2022-12-29T01:21:35;98637.56;;;0.47;86.03
65754;BME280;52488;47.502;18.940;2022-12-29T01:22:38;98635.84;;;0.44;86.22
65754;BME280;52488;47.502;18.940;2022-12-29T01:23:41;98642.28;;;0.41;86.31
65754;BME280;52488;47.502;18.940;2022-12-29T01:24:44;98635.66;;;0.36;86.33
65754;BME280;52488;47.502;18.940;2022-12-29T01:25:47;98637.63;;;0.36;86.41
65754;BME280;52488;47.502;18.940;2022-12-29T01:26:50;98645.50;;;0.34;86.53
65754;BME280;52488;47.502;18.940;2022-12-29T01:27:53;98641.09;;;0.31;86.54
65754;BME280;52488;47.502;18.940;2022-12-29T01:28:56;98639.63;;;0.30;86.62
65754;BME280;52488;47.502;18.940;2022-12-29T01:29:59;98639.34;;;0.33;86.25
65754;BME280;52488;47.502;18.940;2022-12-29T01:31:02;98633.97;;;0.28;86.15
65754;BME280;52488;47.502;18.940;2022-12-29T01:32:05;98635.50;;;0.23;86.23
65754;BME280;52488;47.502;18.940;2022-12-29T01:33:08;98633.78;;;0.20;86.38
65754;BME280;52488;47.502;18.940;2022-12-29T01:34:11;98640.91;;;0.17;86.41
65754;BME280;52488;47.502;18.940;2022-12-29T01:35:14;98640.94;;;0.12;86.49
65754;BME280;52488;47.502;18.940;2022-12-29T01:36:20;98643.87;;;0.08;86.58
65754;BME280;52488;47.502;18.940;2022-12-29T01:37:23;98640.97;;;0.06;86.48
65754;BME280;52488;47.502;18.940;2022-12-29T01:38:29;98639.44;;;0.11;86.40
65754;BME280;52488;47.502;18.940;2022-12-29T01:39:32;98643.87;;;0.08;86.24
65754;BME280;52488;47.502;18.940;2022-12-29T01:40:43;98633.59;;;0.07;86.22
65754;BME280;52488;47.502;18.940;2022-12-29T01:41:46;98637.78;;;0.02;86.32
65754;BME280;52488;47.502;18.940;2022-12-29T01:42:48;98636.06;;;-0.01;86.43
65754;BME280;52488;47.502;18.940;2022-12-29T01:43:54;98630.91;;;0.01;86.41
65754;BME280;52488;47.502;18.940;2022-12-29T01:45:00;98628.22;;;0.01;86.43
65754;BME280;52488;47.502;18.940;2022-12-29T01:46:30;98627.25;;;-0.07;86.56
65754;BME280;52488;47.502;18.940;2022-12-29T01:48:42;98625.81;;;-0.19;87.18
65754;BME280;52488;47.502;18.940;2022-12-29T01:49:45;98623.63;;;-0.21;87.46
65754;BME280;52488;47.502;18.940;2022-12-29T01:50:53;98629.03;;;-0.27;87.61
65754;BME280;52488;47.502;18.940;2022-12-29T01:52:14;98622.91;;;-0.27;87.84
65754;BME280;52488;47.502;18.940;2022-12-29T01:53:25;98617.25;;;-0.29;87.97
65754;BME280;52488;47.502;18.940;2022-12-29T01:54:32;98614.31;;;-0.25;87.82
65754;BME280;52488;47.502;18.940;2022-12-29T01:55:43;98611.34;;;-0.22;87.55
65754;BME280;52488;47.502;18.940;2022-12-29T01:56:47;98614.06;;;-0.28;87.69
65754;BME280;52488;47.502;18.940;2022-12-29T01:57:51;98608.69;;;-0.28;87.68
65754;BME280;52488;47.502;18.940;2022-12-29T01:59:01;98610.38;;;-0.30;87.68
65754;BME280;52488;47.502;18.940;2022-12-29T02:00:10;98606.00;;;-0.33;87.79
65754;BME280;52488;47.502;18.940;2022-12-29T02:01:15;98615.06;;;-0.31;87.81
65754;BME280;52488;47.502;18.940;2022-12-29T02:02:22;98612.84;;;-0.32;87.76
65754;BME280;52488;47.502;18.940;2022-12-29T02:03:26;98613.09;;;-0.36;87.77
65754;BME280;52488;47.502;18.940;2022-12-29T02:04:32;98611.88;;;-0.40;87.87
65754;BME280;52488;47.502;18.940;2022-12-29T02:07:11;98608.47;;;-0.46;88.16
65754;BME280;52488;47.502;18.940;2022-12-29T02:08:17;98612.63;;;-0.45;88.25
65754;BME280;52488;47.502;18.940;2022-12-29T02:09:20;98606.50;;;-0.46;88.41
65754;BME280;52488;47.502;18.940;2022-12-29T02:10:26;98603.53;;;-0.37;88.54
65754;BME280;52488;47.502;18.940;2022-12-29T02:11:32;98600.59;;;-0.33;88.64
65754;BME280;52488;47.502;18.940;2022-12-29T02:12:36;98597.09;;;-0.22;89.00
65754;BME280;52488;47.502;18.940;2022-12-29T02:13:38;98594.41;;;-0.22;89.21
65754;BME280;52488;47.502;18.940;2022-12-29T02:14:41;98593.66;;;-0.23;89.41
65754;BME280;52488;47.502;18.940;2022-12-29T02:17:25;98589.00;;;-0.22;89.70
65754;BME280;52488;47.502;18.940;2022-12-29T02:21:39;98590.50;;;-0.21;89.87
65754;BME280;52488;47.502;18.940;2022-12-29T02:24:37;98578.97;;;-0.28;90.01
65754;BME280;52488;47.502;18.940;2022-12-29T02:26:07;98584.59;;;-0.25;89.82
65754;BME280;52488;47.502;18.940;2022-12-29T02:33:04;98577.28;;;-0.36;89.87
65754;BME280;52488;47.502;18.940;2022-12-29T02:35:54;98578.28;;;-0.45;90.10
65754;BME280;52488;47.502;18.940;2022-12-29T02:37:14;98579.78;;;-0.49;90.28
65754;BME280;52488;47.502;18.940;2022-12-29T02:38:31;98571.69;;;-0.49;90.26
65754;BME280;52488;47.502;18.940;2022-12-29T02:41:32;98565.78;;;-0.54;90.29
65754;BME280;52488;47.502;18.940;2022-12-29T02:43:03;98556.97;;;-0.54;90.43
65754;BME280;52488;47.502;18.940;2022-12-29T02:44:21;98564.06;;;-0.57;90.53
65754;BME280;52488;47.502;18.940;2022-12-29T02:45:54;98567.28;;;-0.58;90.52
65754;BME280;52488;47.502;18.940;2022-12-29T02:47:23;98567.78;;;-0.65;90.59
65754;BME280;52488;47.502;18.940;2022-12-29T02:48:38;98568.53;;;-0.65;90.72
65754;BME280;52488;47.502;18.940;2022-12-29T02:50:17;98562.63;;;-0.63;90.52
65754;BME280;52488;47.502;18.940;2022-12-29T02:51:58;98562.84;;;-0.61;90.28
65754;BME280;52488;47.502;18.940;2022-12-29T02:53:05;98561.88;;;-0.58;89.95
65754;BME280;52488;47.502;18.940;2022-12-29T02:54:09;98558.22;;;-0.61;89.91
65754;BME280;52488;47.502;18.940;2022-12-29T02:55:31;98560.66;;;-0.63;89.97
65754;BME280;52488;47.502;18.940;2022-12-29T02:56:34;98562.88;;;-0.72;90.44
65754;BME280;52488;47.502;18.940;2022-12-29T02:57:37;98555.06;;;-0.76;90.81
65754;BME280;52488;47.502;18.940;2022-12-29T02:58:40;98562.16;;;-0.78;91.17
65754;BME280;52488;47.502;18.940;2022-12-29T02:59:50;98559.47;;;-0.78;91.43
65754;BME280;52488;47.502;18.940;2022-12-29T03:02:16;98549.66;;;-0.76;91.20
65754;BME280;52488;47.502;18.940;2022-12-29T03:03:44;98555.06;;;-0.76;91.11
65754;BME280;52488;47.502;18.940;2022-12-29T03:07:29;98559.97;;;-0.80;91.54
65754;BME280;52488;47.502;18.940;2022-12-29T03:08:38;98555.31;;;-0.80;91.68
65754;BME280;52488;47.502;18.940;2022-12-29T03:09:56;98554.34;;;-0.82;91.82
65754;BME280;52488;47.502;18.940;2022-12-29T03:11:08;98557.03;;;-0.82;91.93
65754;BME280;52488;47.502;18.940;2022-12-29T03:12:45;98557.50;;;-0.78;91.90
65754;BME280;52488;47.502;18.940;2022-12-29T03:14:28;98550.66;;;-0.79;91.71
65754;BME280;52488;47.502;18.940;2022-12-29T03:16:20;98559.22;;;-0.75;91.65
65754;BME280;52488;47.502;18.940;2022-12-29T03:17:29;98544.50;;;-0.80;91.97
65754;BME280;52488;47.502;18.940;2022-12-29T03:18:41;98549.41;;;-0.72;92.01
65754;BME280;52488;47.502;18.940;2022-12-29T03:19:49;98547.94;;;-0.73;91.67
65754;BME280;52488;47.502;18.940;2022-12-29T03:21:05;98544.50;;;-0.74;91.70
65754;BME280;52488;47.502;18.940;2022-12-29T03:22:15;98546.69;;;-0.72;91.71
65754;BME280;52488;47.502;18.940;2022-12-29T03:23:30;98550.16;;;-0.66;91.71
65754;BME280;52488;47.502;18.940;2022-12-29T03:24:38;98538.84;;;-0.59;91.70
65754;BME280;52488;47.502;18.940;2022-12-29T03:25:47;98535.13;;;-0.56;91.72
65754;BME280;52488;47.502;18.940;2022-12-29T03:26:54;98542.75;;;-0.55;91.86
65754;BME280;52488;47.502;18.940;2022-12-29T03:28:23;98536.13;;;-0.54;91.90
65754;BME280;52488;47.502;18.940;2022-12-29T03:29:30;98533.94;;;-0.61;92.17
65754;BME280;52488;47.502;18.940;2022-12-29T03:30:35;98529.00;;;-0.62;92.40
65754;BME280;52488;47.502;18.940;2022-12-29T03:31:41;98531.25;;;-0.66;92.42
65754;BME280;52488;47.502;18.940;2022-12-29T03:32:46;98537.84;;;-0.67;92.54
65754;BME280;52488;47.502;18.940;2022-12-29T03:33:50;98533.47;;;-0.70;92.51
65754;BME280;52488;47.502;18.940;2022-12-29T03:34:54;98540.81;;;-0.71;92.48
65754;BME280;52488;47.502;18.940;2022-12-29T03:36:00;98528.06;;;-0.70;92.43
65754;BME280;52488;47.502;18.940;2022-12-29T03:37:09;98525.59;;;-0.68;92.41
65754;BME280;52488;47.502;18.940;2022-12-29T03:38:21;98519.69;;;-0.67;92.32
65754;BME280;52488;47.502;18.940;2022-12-29T03:39:26;98515.28;;;-0.64;92.30
65754;BME280;52488;47.502;18.940;2022-12-29T03:40:31;98516.00;;;-0.58;92.32
65754;BME280;52488;47.502;18.940;2022-12-29T03:41:35;98518.47;;;-0.55;92.38
65754;BME280;52488;47.502;18.940;2022-12-29T03:42:40;98526.28;;;-0.57;92.45
65754;BME280;52488;47.502;18.940;2022-12-29T03:43:43;98521.66;;;-0.62;92.57
65754;BME280;52488;47.502;18.940;2022-12-29T03:44:54;98520.44;;;-0.61;92.69
65754;BME280;52488;47.502;18.940;2022-12-29T03:45:57;98523.91;;;-0.66;92.77
65754;BME280;52488;47.502;18.940;2022-12-29T03:47:00;98515.56;;;-0.73;92.96
65754;BME280;52488;47.502;18.940;2022-12-29T03:48:03;98523.41;;;-0.75;93.15
65754;BME280;52488;47.502;18.940;2022-12-29T03:49:06;98525.13;;;-0.72;93.20
65754;BME280;52488;47.502;18.940;2022-12-29T03:50:12;98529.03;;;-0.73;93.23
65754;BME280;52488;47.502;18.940;2022-12-29T03:51:15;98527.34;;;-0.76;93.37
65754;BME280;52488;47.502;18.940;2022-12-29T03:52:20;98528.81;;;-0.75;93.47
65754;BME280;52488;47.502;18.940;2022-12-29T03:53:23;98536.91;;;-0.75;93.52
65754;BME280;52488;47.502;18.940;2022-12-29T03:54:25;98530.50;;;-0.72;93.45
65754;BME280;52488;47.502;18.940;2022-12-29T03:55:28;98533.97;;;-0.72;93.35
65754;BME280;52488;47.502;18.940;2022-12-29T03:56:31;98532.72;;;-0.65;93.31
65754;BME280;52488;47.502;18.940;2022-12-29T03:57:35;98535.63;;;-0.58;93.22
65754;BME280;52488;47.502;18.940;2022-12-29T03:58:38;98531.94;;;-0.55;93.13
65754;BME280;52488;47.502;18.940;2022-12-29T03:59:40;98517.97;;;-0.53;93.19
65754;BME280;52488;47.502;18.940;2022-12-29T04:00:43;98519.94;;;-0.59;93.34
65754;BME280;52488;47.502;18.940;2022-12-29T04:01:46;98536.16;;;-0.65;93.61
65754;BME280;52488;47.502;18.940;2022-12-29T04:02:49;98525.34;;;-0.65;93.80
65754;BME280;52488;47.502;18.940;2022-12-29T04:03:52;98530.75;;;-0.65;93.84
65754;BME280;52488;47.502;18.940;2022-12-29T04:04:55;98525.59;;;-0.68;93.97
65754;BME280;52488;47.502;18.940;2022-12-29T04:05:58;98523.63;;;-0.68;94.11
65754;BME280;52488;47.502;18.940;2022-12-29T04:07:02;98522.41;;;-0.67;94.11
65754;BME280;52488;47.502;18.940;2022-12-29T04:08:05;98520.47;;;-0.72;94.05
65754;BME280;52488;47.502;18.940;2022-12-29T04:09:09;98530.28;;;-0.74;94.03
65754;BME280;52488;47.502;18.940;2022-12-29T04:10:12;98521.69;;;-0.73;94.05
65754;BME280;52488;47.502;18.940;2022-12-29T04:11:15;98528.06;;;-0.70;94.02
65754;BME280;52488;47.502;18.940;2022-12-29T04:12:19;98534.69;;;-0.66;93.94
65754;BME280;52488;47.502;18.940;2022-12-29T04:13:22;98526.34;;;-0.68;93.64
65754;BME280;52488;47.502;18.940;2022-12-29T04:14:33;98521.69;;;-0.73;93.60
65754;BME280;52488;47.502;18.940;2022-12-29T04:15:36;98526.12;;;-0.75;93.70
65754;BME280;52488;47.502;18.940;2022-12-29T04:16:39;98525.13;;;-0.72;93.66
65754;BME280;52488;47.502;18.940;2022-12-29T04:17:42;98523.41;;;-0.75;93.55
65754;BME280;52488;47.502;18.940;2022-12-29T04:18:44;98520.75;;;-0.81;93.59
65754;BME280;52488;47.502;18.940;2022-12-29T04:19:47;98521.47;;;-0.81;93.60
65754;BME280;52488;47.502;18.940;2022-12-29T04:20:50;98516.81;;;-0.86;93.64
65754;BME280;52488;47.502;18.940;2022-12-29T04:22:02;98521.72;;;-0.90;93.86
65754;BME280;52488;47.502;18.940;2022-12-29T04:23:05;98518.06;;;-0.92;94.02
65754;BME280;52488;47.502;18.940;2022-12-29T04:24:08;98515.88;;;-0.94;94.23
65754;BME280;52488;47.502;18.940;2022-12-29T04:25:11;98518.56;;;-0.94;94.36
65754;BME280;52488;47.502;18.940;2022-12-29T04:26:15;98521.75;;;-0.95;94.51
65754;BME280;52488;47.502;18.940;2022-12-29T04:27:18;98524.94;;;-0.97;94.62
65754;BME280;52488;47.502;18.940;2022-12-29T04:28:21;98524.69;;;-0.93;94.64
65754;BME280;52488;47.502;18.940;2022-12-29T04:29:24;98526.91;;;-0.97;94.48
65754;BME280;52488;47.502;18.940;2022-12-29T04:30:29;98535.50;;;-0.99;94.45
65754;BME280;52488;47.502;18.940;2022-12-29T04:31:31;98529.09;;;-0.90;94.31
65754;BME280;52488;47.502;18.940;2022-12-29T04:32:38;98524.19;;;-0.86;94.01
65754;BME280;52488;47.502;18.940;2022-12-29T04:33:40;98534.25;;;-0.92;93.95
65754;BME280;52488;47.502;18.940;2022-12-29T04:34:43;98532.28;;;-0.92;94.11
65754;BME280;52488;47.502;18.940;2022-12-29T04:35:47;98537.44;;;-0.94;94.09
65754;BME280;52488;47.502;18.940;2022-12-29T04:36:50;98533.03;;;-0.97;94.21
65754;BME280;52488;47.502;18.940;2022-12-29T04:37:53;98524.19;;;-0.97;94.31
65754;BME280;52488;47.502;18.940;2022-12-29T04:38:56;98535.50;;;-0.99;94.39
65754;BME280;52488;47.502;18.940;2022-12-29T04:39:59;98530.34;;;-1.02;94.54
65754;BME280;52488;47.502;18.940;2022-12-29T04:41:02;98531.56;;;-1.03;94.75
65754;BME280;52488;47.502;18.940;2022-12-29T04:42:05;98516.84;;;-1.02;94.90
65754;BME280;52488;47.502;18.940;2022-12-29T04:43:09;98528.38;;;-1.02;94.97
65754;BME280;52488;47.502;18.940;2022-12-29T04:44:12;98522.97;;;-0.96;94.87
65754;BME280;52488;47.502;18.940;2022-12-29T04:45:15;98522.00;;;-0.99;94.82
65754;BME280;52488;47.502;18.940;2022-12-29T04:46:18;98518.81;;;-0.97;94.82
65754;BME280;52488;47.502;18.940;2022-12-29T04:47:21;98525.94;;;-1.00;94.95
65754;BME280;52488;47.502;18.940;2022-12-29T04:48:24;98524.69;;;-0.99;95.07
65754;BME280;52488;47.502;18.940;2022-12-29T04:49:27;98526.41;;;-0.96;95.09
65754;BME280;52488;47.502;18.940;2022-12-29T04:50:31;98524.94;;;-0.97;95.12
65754;BME280;52488;47.502;18.940;2022-12-29T04:51:33;98523.69;;;-0.96;95.08
65754;BME280;52488;47.502;18.940;2022-12-29T04:52:37;98532.53;;;-0.95;94.94
65754;BME280;52488;47.502;18.940;2022-12-29T04:53:40;98531.56;;;-0.98;94.95
65754;BME280;52488;47.502;18.940;2022-12-29T04:54:42;98530.56;;;-1.00;95.04
65754;BME280;52488;47.502;18.940;2022-12-29T04:55:49;98526.91;;;-1.03;95.20
65754;BME280;52488;47.502;18.940;2022-12-29T04:56:53;98525.94;;;-1.00;95.30
65754;BME280;52488;47.502;18.940;2022-12-29T04:57:56;98529.34;;;-0.94;95.08
65754;BME280;52488;47.502;18.940;2022-12-29T04:58:59;98522.97;;;-0.96;94.89
65754;BME280;52488;47.502;18.940;2022-12-29T05:00:02;98526.16;;;-0.98;94.91
65754;BME280;52488;47.502;18.940;2022-12-29T05:01:06;98522.00;;;-0.99;95.07
65754;BME280;52488;47.502;18.940;2022-12-29T05:02:09;98518.06;;;-0.98;95.20
65754;BME280;52488;47.502;18.940;2022-12-29T05:03:12;98523.69;;;-0.96;95.30
65754;BME280;52488;47.502;18.940;2022-12-29T05:04:15;98524.69;;;-0.93;95.31
65754;BME280;52488;47.502;18.940;2022-12-29T05:05:18;98516.09;;;-0.92;95.30
65754;BME280;52488;47.502;18.940;2022-12-29T05:06:21;98518.78;;;-0.92;95.35
65754;BME280;52488;47.502;18.940;2022-12-29T05:07:24;98517.34;;;-0.93;95.50
65754;BME280;52488;47.502;18.940;2022-12-29T05:08:27;98527.84;;;-0.89;95.56
65754;BME280;52488;47.502;18.940;2022-12-29T05:09:30;98526.38;;;-0.90;95.54
65754;BME280;52488;47.502;18.940;2022-12-29T05:10:33;98526.88;;;-0.86;95.40
65754;BME280;52488;47.502;18.940;2022-12-29T05:11:39;98517.06;;;-0.84;95.07
65754;BME280;52488;47.502;18.940;2022-12-29T05:12:42;98526.16;;;-0.87;95.01
65754;BME280;52488;47.502;18.940;2022-12-29T05:13:45;98523.69;;;-0.85;95.06
65754;BME280;52488;47.502;18.940;2022-12-29T05:14:49;98519.75;;;-0.89;94.96
65754;BME280;52488;47.502;18.940;2022-12-29T05:15:52;98522.47;;;-0.95;94.96
65754;BME280;52488;47.502;18.940;2022-12-29T05:16:56;98520.28;;;-0.96;95.07
65754;BME280;52488;47.502;18.940;2022-12-29T05:17:59;98527.88;;;-0.95;95.10
65754;BME280;52488;47.502;18.940;2022-12-29T05:19:02;98518.81;;;-0.97;94.99
65754;BME280;52488;47.502;18.940;2022-12-29T05:20:06;98520.78;;;-0.98;94.92
65754;BME280;52488;47.502;18.940;2022-12-29T05:21:09;98515.16;;;-1.00;94.89
65754;BME280;52488;47.502;18.940;2022-12-29T05:22:11;98512.94;;;-1.01;95.10
65754;BME280;52488;47.502;18.940;2022-12-29T05:23:16;98514.87;;;-1.02;95.32
65754;BME280;52488;47.502;18.940;2022-12-29T05:24:21;98513.19;;;-0.99;95.41
65754;BME280;52488;47.502;18.940;2022-12-29T05:25:24;98515.63;;;-0.96;95.26
65754;BME280;52488;47.502;18.940;2022-12-29T05:26:28;98509.50;;;-0.96;95.12
65754;BME280;52488;47.502;18.940;2022-12-29T05:27:34;98514.66;;;-0.98;95.17
65754;BME280;52488;47.502;18.940;2022-12-29T05:28:37;98514.37;;;-1.00;95.31
65754;BME280;52488;47.502;18.940;2022-12-29T05:29:40;98511.47;;;-1.02;95.48
65754;BME280;52488;47.502;18.940;2022-12-29T05:30:43;98517.59;;;-1.02;95.56
65754;BME280;52488;47.502;18.940;2022-12-29T05:31:46;98521.50;;;-1.03;95.58
65754;BME280;52488;47.502;18.940;2022-12-29T05:32:49;98516.34;;;-1.01;95.55
65754;BME280;52488;47.502;18.940;2022-12-29T05:33:52;98521.75;;;-1.01;95.48
65754;BME280;52488;47.502;18.940;2022-12-29T05:34:55;98516.84;;;-1.02;95.44
65754;BME280;52488;47.502;18.940;2022-12-29T05:36:06;98514.66;;;-1.04;95.42
65754;BME280;52488;47.502;18.940;2022-12-29T05:37:09;98516.84;;;-1.02;95.50
65754;BME280;52488;47.502;18.940;2022-12-29T05:38:12;98516.84;;;-1.02;95.41
65754;BME280;52488;47.502;18.940;2022-12-29T05:39:16;98515.88;;;-1.05;95.48
65754;BME280;52488;47.502;18.940;2022-12-29T05:40:18;98520.03;;;-0.98;95.48
65754;BME280;52488;47.502;18.940;2022-12-29T05:41:21;98519.56;;;-1.02;95.36
65754;BME280;52488;47.502;18.940;2022-12-29T05:42:24;98512.94;;;-1.01;95.38
65754;BME280;52488;47.502;18.940;2022-12-29T05:43:27;98517.59;;;-1.02;95.32
65754;BME280;52488;47.502;18.940;2022-12-29T05:44:30;98521.75;;;-1.01;95.41
65754;BME280;52488;47.502;18.940;2022-12-29T05:45:32;98512.19;;;-1.02;95.40
65754;BME280;52488;47.502;18.940;2022-12-29T05:46:35;98510.50;;;-1.05;95.44
65754;BME280;52488;47.502;18.940;2022-12-29T05:47:38;98513.66;;;-1.07;95.52
65754;BME280;52488;47.502;18.940;2022-12-29T05:48:41;98510.72;;;-1.03;95.55
65754;BME280;52488;47.502;18.940;2022-12-29T05:49:43;98501.41;;;-1.02;95.59
65754;BME280;52488;47.502;18.940;2022-12-29T05:50:48;98501.19;;;-1.04;95.63
65754;BME280;52488;47.502;18.940;2022-12-29T05:51:50;98500.91;;;-1.06;95.74
65754;BME280;52488;47.502;18.940;2022-12-29T05:52:56;98498.47;;;-1.04;95.88
65754;BME280;52488;47.502;18.940;2022-12-29T05:54:03;98494.56;;;-1.03;95.93
65754;BME280;52488;47.502;18.940;2022-12-29T05:55:06;98495.78;;;-1.04;95.95
65754;BME280;52488;47.502;18.940;2022-12-29T05:56:09;98489.88;;;-1.02;95.97
65754;BME280;52488;47.502;18.940;2022-12-29T05:57:12;98488.94;;;-1.05;96.00
65754;BME280;52488;47.502;18.940;2022-12-29T05:58:16;98483.75;;;-1.03;96.07
65754;BME280;52488;47.502;18.940;2022-12-29T05:59:19;98488.19;;;-1.00;96.08
65754;BME280;52488;47.502;18.940;2022-12-29T06:00:22;98481.78;;;-0.97;96.02
65754;BME280;52488;47.502;18.940;2022-12-29T06:01:25;98487.91;;;-0.96;96.00
65754;BME280;52488;47.502;18.940;2022-12-29T06:02:28;98492.56;;;-0.97;95.99
65754;BME280;52488;47.502;18.940;2022-12-29T06:03:31;98496.72;;;-0.96;95.92
65754;BME280;52488;47.502;18.940;2022-12-29T06:04:34;98497.25;;;-0.97;95.91
65754;BME280;52488;47.502;18.940;2022-12-29T06:05:37;98498.47;;;-0.98;95.95
65754;BME280;52488;47.502;18.940;2022-12-29T06:06:40;98497.97;;;-1.02;95.84
65754;BME280;52488;47.502;18.940;2022-12-29T06:07:43;98501.41;;;-1.02;95.88
65754;BME280;52488;47.502;18.940;2022-12-29T06:08:47;98497.97;;;-1.02;95.78
65754;BME280;52488;47.502;18.940;2022-12-29T06:09:49;98500.91;;;-1.06;95.73
65754;BME280;52488;47.502;18.940;2022-12-29T06:10:52;98504.12;;;-1.08;95.73
65754;BME280;52488;47.502;18.940;2022-12-29T06:11:55;98496.53;;;-1.09;95.70
65754;BME280;52488;47.502;18.940;2022-12-29T06:12:58;98504.84;;;-1.07;95.72
65754;BME280;52488;47.502;18.940;2022-12-29T06:14:00;98494.06;;;-1.07;95.63
65754;BME280;52488;47.502;18.940;2022-12-29T06:15:04;98498.22;;;-1.12;95.56